logo
Search for airport 
image banner adimage banner adimage banner ad
image banner ad

FLIJ - Inja

Located in Chiundaponde, Zambia

ICAO - , IATA -

Data provided by Airmate  

General information

Coordinates: S12°15'37" E30°35'8"
Elevation is 4004 feet MSL.
Magnetic variation is -3° East
View others Airports in Northern Province

Operational data

Special qualification required
Current time UTC:
Current local time:
Weather at : - ( 0 km )
METAR: KQFX 251710Z AUTO 20002KT 9999 OVC047 19/10 A2991 RMK A02 TSNO
View NOTAMs / SUP AIP / TFR affecting this airport [VIEW]
Communications frequencies: [VIEW]

Runways:

RWY identifierQFULength (ft)Width (ft)SurfaceLDA (ft)
0763°345691GRAS
25243°345691GRAS

Airport contact information

Address: Chiundaponde Zambia

Satellite view of FLIJ